WEATHER DATA

YESTERDAY
Time Temp. Dewp. Hum. Bar. 1h Prec. 24h Prec.
00:00 8.7 0.9 58 1025.4 0.0000 0.0000
00:20 8.4 0.6 58 1025.3 0.0000 0.0000
00:30 8.3 0.5 58 1025.2 0.0000 0.0000
00:41 8.2 0.4 58 1025.3 0.0000 0.0000
00:50 8.1 0.3 58 1025.4 0.0000 0.0000
01:00 8 0.5 59 1025.5 0.0000 0.0000
01:11 7.9 0.4 59 1025.5 0.0000 0.0000
01:21 7.8 0.3 59 1025.6 0.0000 0.0000
01:30 7.7 0.2 59 1025.5 0.0000 0.0000
01:51 7.5 0 59 1025.5 0.0000 0.0000
02:01 7.3 0.1 60 1025.4 0.0000 0.0000
02:11 7.2 0 60 1025.3 0.0000 0.0000
02:15 7.1 -0.1 60 1025.1 0.0000 0.0000
02:51 6.8 -0.2 61 1025 0.0000 0.0000
02:58 6.7 0 62 1025 0.0000 0.0000
03:21 6.4 -0.1 63 1024.9 0.0000 0.0000
03:41 6.3 0 64 1024.9 0.0000 0.0000
03:51 6.2 -0.1 64 1024.8 0.0000 0.0000
04:12 6 -0.1 65 1024.7 0.0000 0.0000
04:21 6 -0.1 65 1024.6 0.0000 0.0000
04:31 5.9 -0.1 65 1024.7 0.0000 0.0000
04:42 5.9 -0.1 65 1024.8 0.0000 0.0000
05:01 5.7 -0.1 66 1024.8 0.0000 0.0000
05:22 5.5 -0.1 67 1024.7 0.0000 0.0000
05:32 5.4 -0.2 67 1024.8 0.0000 0.0000
05:41 5.3 -0.3 67 1024.7 0.0000 0.0000
05:52 5.2 -0.4 67 1024.8 0.0000 0.0000
06:02 5 -0.4 68 1024.8 0.0000 0.0000
06:12 5 -0.4 68 1024.9 0.0000 0.0000
06:32 4.8 -0.4 69 1024.9 0.0000 0.0000
06:42 4.7 -0.4 69 1024.9 0.0000 0.0000
06:52 4.7 -0.4 69 1025 0.0000 0.0000
07:03 4.6 -0.3 70 1025.1 0.0000 0.0000
07:12 4.6 -0.3 70 1025.1 0.0000 0.0000
07:22 4.8 0 71 1025.2 0.0000 0.0000
07:33 5.6 0.8 71 1025.2 0.0000 0.0000
07:42 6.7 1.4 69 1025.3 0.0000 0.0000
07:52 7.9 1.7 65 1025.3 0.0000 0.0000
08:02 9.4 2.3 61 1025.5 0.0000 0.0000
08:13 10.7 2.3 56 1025.5 0.0000 0.0000
08:22 11.5 2.8 55 1025.6 0.0000 0.0000
08:32 12.9 3.3 52 1025.4 0.0000 0.0000
08:43 13.8 3.8 51 1025.6 0.0000 0.0000
08:53 14.9 4 48 1025.7 0.0000 0.0000
09:02 15.4 3.9 46 1025.6 0.0000 0.0000
09:12 16 3.4 43 1025.6 0.0000 0.0000
09:23 16.3 4.4 45 1025.4 0.0000 0.0000
09:33 16.1 4.2 45 1025.2 0.0000 0.0000
09:42 16 4.1 45 1025.1 0.0000 0.0000
09:53 15.3 3.8 46 1025.2 0.0000 0.0000
10:03 14.8 3.6 47 1025 0.0000 0.0000
10:13 14.8 3.6 47 1025 0.0000 0.0000
10:23 14.9 3.7 47 1025 0.0000 0.0000
10:33 15.1 4.2 48 1024.9 0.0000 0.0000
10:43 15.3 4.1 47 1025 0.0000 0.0000
10:53 15.8 4.2 46 1024.8 0.0000 0.0000
11:03 15.8 4.2 46 1024.6 0.0000 0.0000
11:10 16.1 4.8 47 1024.4 0.0000 0.0000
12:51 18.8 5.3 41 1023.4 0.0000 0.0000
13:01 18.7 4.8 40 1023.2 0.0000 0.0000
13:11 18.6 4.8 40 1023 0.0000 0.0000
13:19 18.8 4.9 40 1023 0.0000 0.0000
13:31 18.8 4.6 39 1023 0.0000 0.0000
13:40 18.9 5 40 1022.6 0.0000 0.0000
16:19 19.1 4.5 38 1020.8 0.0000 0.0000
16:29 19 3.6 36 1020.6 0.0000 0.0000
16:39 19 3.2 35 1020.5 0.0000 0.0000
16:49 19 3.2 35 1020.4 0.0000 0.0000
16:59 18.9 3.1 35 1020.4 0.0000 0.0000
17:10 18.9 3.5 36 1020.2 0.0000 0.0000
17:19 18.9 3.5 36 1020 0.0000 0.0000
17:29 18.8 3.4 36 1019.8 0.0000 0.0000
17:39 18.8 4.2 38 1019.9 0.0000 0.0000
17:49 18.7 3.7 37 1019.7 0.0000 0.0000
17:59 18.7 3.7 37 1019.6 0.0000 0.0000
18:09 18.6 4 38 1019.6 0.0000 0.0000
18:20 18.4 3.8 38 1019.6 0.0000 0.0000
18:29 18.3 3.8 38 1019.6 0.0000 0.0000
18:39 18.2 3.7 38 1019.6 0.0000 0.0000
18:49 18 3.5 38 1019.5 0.0000 0.0000
19:19 17.5 3.4 39 1019.3 0.0000 0.0000
19:30 17.4 3.3 39 1019.1 0.0000 0.0000
19:40 17.2 3.1 39 1019.3 0.0000 0.0000
19:49 17 3.3 40 1019.1 0.0000 0.0000
20:00 16.8 3.1 40 1019.3 0.0000 0.0000
20:10 16.5 3.2 41 1019.2 0.0000 0.0000
20:30 16 2.8 41 1019.2 0.0000 0.0000
20:40 15.8 2.6 41 1019.3 0.0000 0.0000
20:50 15.5 2.7 42 1019.2 0.0000 0.0000
21:00 15.2 2.7 43 1019.2 0.0000 0.0000
21:10 15 2.9 44 1019.2 0.0000 0.0000
21:20 14.7 3.5 47 1019.2 0.0000 0.0000
21:30 14.5 3.6 48 1019.2 0.0000 0.0000
21:40 14.3 4 50 1019.1 0.0000 0.0000
21:50 14.1 3.8 50 1019.1 0.0000 0.0000
22:01 13.9 3.9 51 1019.1 0.0000 0.0000
22:11 13.7 3.8 51 1019.2 0.0000 0.0000
22:21 13.4 3.8 52 1019 0.0000 0.0000
22:32 13.2 3.6 52 1019 0.0000 0.0000
22:41 13 3.7 53 1019 0.0000 0.0000
22:51 12.8 3.5 53 1019 0.0000 0.0000
23:01 12.7 3.6 54 1018.9 0.0000 0.0000
23:12 12.5 3.5 54 1018.8 0.0000 0.0000
23:21 12.3 3.3 54 1018.9 0.0000 0.0000
23:31 12.1 3.3 55 1018.7 0.0000 0.0000
23:42 12 3.2 55 1018.8 0.0000 0.0000
23:52 11.8 3.1 55 1018.7 0.0000

DAY STATISTIC

2020-04-05
TEMPERATURE
AVERAGE
12.5
HIGH
19.1
16:19
LOW
4.6
07:03
PRESSURE
AVERAGE
1022.7
HIGH
1025.7
08:53
LOW
1018.7
23:31
DEWPOINT
AVERAGE
2.4
HIGH
5.3
12:51
LOW
-0.4
05:52
HUMIDITY
AVERAGE
52
HIGH
71
07:22
LOW
35
16:39
PRECIPITATION
RAIN HOUR
0.0
RAIN DAY
0.0
TEMPERATURE (°C)
LOW
4.6
HIGH
19.1
AVERAGE
12.5
PRESSURE (hpa)
LOW
1018.7
HIGH
1025.7
AVERAGE
1022.7
DEVICE